Weather History for KVYS - July, 2012

Change the Weather History Date:

Thursday, July 26, 2012

  Actual Average Record
Temperature  
Mean Temperature 77 °F -  
Max Temperature 87 °F 85 °F 97 °F (1987)
Min Temperature 68 °F 63 °F 49 °F (1977)
Cooling Degree Days 12    
Growing Degree Days 27 (Base 50)    
Moisture  
Dew Point 69 °F    
Average Humidity 78    
Maximum Humidity 92    
Minimum Humidity 51    
Precipitation  
Precipitation 0.06 in - - ()
Sea Level Pressure  
Sea Level Pressure 29.74 in    
Wind  
Wind Speed 9 mph (WSW)    
Max Wind Speed 22 mph    
Max Gust Speed 32 mph    
Visibility 10 miles    
Events Rain , Thunderstorm    
Averages and records for this station are not official NWS values.
T = Trace of Precipitation, MM = Missing Value Source: NWS Daily Summary

Daily Weather History Graph

Daily Weather History Graph

Search for Another Location

Airport or City:

Trip Planner

Search our weather history database for the weather conditions in past years. The results will help you decide how hot, cold, wet, or windy it might be!

Date:

Astronomy

Jul. 26, 2012 Rise Set
Actual Time 5:46 AM CDT 8:19 PM CDT
Civil Twilight 5:14 AM CDT 8:50 PM CDT
Nautical Twilight 4:35 AM CDT 9:30 PM CDT
Astronomical Twilight 3:50 AM CDT 10:14 PM CDT
Moon 2:06 PM CDT (7/26) No Moon Set
Length of Visible Light 15h 36m
Length of Day
14h 32m
First Quarter, 54% of the Moon is Illuminated
Jul 26
First Quarter
Aug 1
Full
Aug 9
Last Quarter
Aug 17
New
Aug 24
First Quarter

Hourly Weather History & Observations

Time (CDT) Temp. Heat Index Dew Point Humidity Pressure Visibility Wind Dir Wind Speed Gust Speed Precip Events Conditions
12:15 AM 84.4 °F 86.8 °F 66.4 °F 55% 29.61 in 10.0 mi SW 8.1 mph - N/A   Scattered Clouds
12:35 AM 85.5 °F 87.6 °F 66.2 °F 52% 29.61 in 10.0 mi SW 10.4 mph - N/A   Clear
12:55 AM 86.4 °F 88.7 °F 66.2 °F 51% 29.61 in 10.0 mi SW 13.8 mph - N/A   Clear
1:15 AM 86.4 °F 88.7 °F 66.4 °F 51% 29.65 in 10.0 mi WNW 15.0 mph 26.5 mph N/A   Mostly Cloudy
1:35 AM 85.1 °F 87.1 °F 65.5 °F 52% 29.66 in 10.0 mi WNW 15.0 mph 25.3 mph N/A   Mostly Cloudy
1:55 AM 77.9 °F - 68.9 °F 74% 29.65 in 10.0 mi WNW 12.7 mph - 0.01 in Rain Light Rain
2:15 AM 76.6 °F - 69.6 °F 79% 29.64 in 10.0 mi NNW 6.9 mph - 0.01 in Rain Light Rain
2:35 AM 75.2 °F - 69.3 °F 82% 29.66 in 10.0 mi NW 5.8 mph - 0.01 in   Scattered Clouds
2:55 AM 75.6 °F - 70.3 °F 84% 29.68 in 10.0 mi South 3.5 mph - 0.01 in   Mostly Cloudy
3:15 AM 75.2 °F - 70.7 °F 86% 29.69 in 10.0 mi South 6.9 mph - N/A   Overcast
3:35 AM 75.2 °F - 71.1 °F 87% 29.71 in 10.0 mi West 3.5 mph - N/A   Overcast
3:55 AM 75.2 °F - 70.9 °F 86% 29.70 in 10.0 mi Calm Calm - N/A   Scattered Clouds
4:15 AM 75.6 °F - 68.5 °F 79% 29.70 in 10.0 mi West 4.6 mph - N/A   Clear
4:35 AM 75.4 °F - 69.1 °F 81% 29.67 in 10.0 mi Calm Calm - N/A   Clear
4:55 AM 75.2 °F - 69.8 °F 83% 29.66 in 10.0 mi SE 4.6 mph - N/A   Clear
5:15 AM 75.2 °F - 69.8 °F 83% 29.68 in 10.0 mi SSW 3.5 mph - N/A   Mostly Cloudy
5:35 AM 73.9 °F - 70.0 °F 87% 29.72 in 10.0 mi SW 8.1 mph - N/A   Overcast
5:55 AM 73.9 °F - 69.3 °F 85% 29.75 in 10.0 mi West 9.2 mph - N/A   Overcast
6:15 AM 73.9 °F - 68.9 °F 84% 29.75 in 10.0 mi WSW 12.7 mph 17.3 mph N/A   Overcast
6:35 AM 74.5 °F - 69.3 °F 84% 29.75 in 10.0 mi WSW 6.9 mph - N/A   Scattered Clouds
6:55 AM 74.1 °F - 68.4 °F 82% 29.74 in 10.0 mi WSW 9.2 mph - N/A   Light Drizzle
7:15 AM 73.4 °F - 68.2 °F 84% 29.72 in 10.0 mi Calm Calm - N/A   Clear
7:35 AM 73.9 °F - 68.5 °F 83% 29.70 in 10.0 mi Calm Calm - N/A Rain Light Rain
7:55 AM 73.4 °F - 68.5 °F 85% 29.72 in 10.0 mi SSW 9.2 mph - N/A   Clear
8:15 AM 74.1 °F - 68.4 °F 82% 29.72 in 10.0 mi SSW 10.4 mph - N/A   Clear
8:35 AM 75.2 °F - 69.3 °F 82% 29.72 in 10.0 mi SW 11.5 mph - N/A Rain Light Rain
8:55 AM 75.2 °F - 68.9 °F 81% 29.73 in 10.0 mi WSW 10.4 mph - N/A   Mostly Cloudy
9:15 AM 75.2 °F - 68.7 °F 80% 29.73 in 10.0 mi WSW 13.8 mph - N/A   Overcast
9:35 AM 75.2 °F - 68.9 °F 81% 29.74 in 10.0 mi WSW 13.8 mph - N/A   Overcast
9:55 AM 75.4 °F - 69.1 °F 81% 29.75 in 10.0 mi WSW 10.4 mph - N/A   Overcast
10:15 AM 76.5 °F - 69.3 °F 78% 29.75 in 10.0 mi WSW 11.5 mph - N/A   Overcast
10:35 AM 78.1 °F - 70.0 °F 76% 29.75 in 10.0 mi WSW 12.7 mph 16.1 mph N/A   Overcast
10:55 AM 80.2 °F 83.7 °F 70.9 °F 73% 29.75 in 10.0 mi WSW 13.8 mph 17.3 mph N/A   Overcast
11:15 AM 80.2 °F 83.7 °F 70.9 °F 73% 29.75 in 10.0 mi WSW 10.4 mph - N/A   Overcast
11:35 AM 80.2 °F 83.7 °F 71.1 °F 73% 29.75 in 10.0 mi West 11.5 mph - N/A   Overcast
11:55 AM 80.2 °F 84.0 °F 71.6 °F 75% 29.75 in 10.0 mi WSW 10.4 mph - N/A   Mostly Cloudy
12:15 PM 80.2 °F 83.9 °F 71.2 °F 74% 29.75 in 10.0 mi WSW 13.8 mph - N/A   Mostly Cloudy
12:35 PM 80.6 °F 84.6 °F 71.6 °F 74% 29.75 in 10.0 mi West 10.4 mph - N/A   Scattered Clouds
12:55 PM 81.9 °F 86.4 °F 71.8 °F 71% 29.76 in 10.0 mi West 13.8 mph 17.3 mph N/A   Scattered Clouds
1:15 PM 81.5 °F 85.9 °F 71.6 °F 72% 29.76 in 10.0 mi WSW 11.5 mph - N/A   Scattered Clouds
1:35 PM 81.9 °F 86.4 °F 71.6 °F 71% 29.77 in 10.0 mi WSW 12.7 mph 17.3 mph N/A   Mostly Cloudy
1:55 PM 81.5 °F 85.9 °F 71.6 °F 72% 29.77 in 10.0 mi WSW 11.5 mph 19.6 mph N/A   Mostly Cloudy
2:15 PM 83.7 °F 89.2 °F 72.0 °F 68% 29.76 in 10.0 mi WSW 13.8 mph - N/A   Scattered Clouds
2:35 PM 84.4 °F 90.0 °F 71.8 °F 66% 29.76 in 10.0 mi WSW 12.7 mph 20.7 mph N/A   Scattered Clouds
2:55 PM 85.6 °F 91.1 °F 71.2 °F 62% 29.76 in 10.0 mi WSW 12.7 mph 17.3 mph N/A   Scattered Clouds
3:15 PM 86.7 °F 92.1 °F 70.9 °F 59% 29.75 in 10.0 mi WSW 6.9 mph - N/A   Scattered Clouds
3:35 PM 86.9 °F 92.1 °F 70.5 °F 58% 29.73 in 10.0 mi SSW 10.4 mph - N/A   Scattered Clouds
3:55 PM 86.4 °F 91.1 °F 70.2 °F 58% 29.73 in 10.0 mi WSW 11.5 mph - N/A   Scattered Clouds
4:15 PM 86.7 °F 92.1 °F 70.7 °F 59% 29.75 in 10.0 mi SW 12.7 mph - N/A   Scattered Clouds
4:35 PM 85.8 °F 90.8 °F 70.5 °F 60% 29.76 in 10.0 mi WNW 21.9 mph 32.2 mph N/A   Mostly Cloudy
4:55 PM 72.1 °F - 64.8 °F 78% 29.78 in 3.0 mi NW 11.5 mph 32.2 mph 0.03 in Rain Rain
5:15 PM 71.6 °F - 66.2 °F 83% 29.76 in 10.0 mi WSW 3.5 mph - N/A Rain , Thunderstorm Light Thunderstorms and Rain
5:35 PM 70.7 °F - 66.6 °F 87% 29.74 in 10.0 mi SSE 5.8 mph - 0.01 in Rain Rain
5:55 PM 71.6 °F - 68.0 °F 88% 29.75 in 10.0 mi SW 5.8 mph - N/A   Clear
6:15 PM 73.8 °F - 67.8 °F 82% 29.74 in 10.0 mi SW 6.9 mph - N/A   Clear
6:35 PM 75.2 °F - 68.9 °F 81% 29.75 in 10.0 mi WSW 8.1 mph - N/A   Clear
6:55 PM 75.2 °F - 68.0 °F 78% 29.75 in 10.0 mi WSW 8.1 mph - N/A   Clear
7:15 PM 75.6 °F - 68.7 °F 79% 29.75 in 10.0 mi WSW 6.9 mph - N/A   Clear
7:35 PM 75.2 °F - 69.4 °F 82% 29.76 in 10.0 mi WSW 5.8 mph - N/A   Clear
7:55 PM 74.1 °F - 69.1 °F 84% 29.77 in 10.0 mi Calm Calm - N/A   Clear
8:15 PM 73.4 °F - 68.9 °F 86% 29.78 in 10.0 mi WSW 4.6 mph - N/A   Clear
8:35 PM 72.3 °F - 68.5 °F 88% 29.78 in 10.0 mi West 8.1 mph - N/A   Clear
8:55 PM 71.6 °F - 68.2 °F 89% 29.80 in 10.0 mi WSW 5.8 mph - N/A   Clear
9:15 PM 71.6 °F - 67.8 °F 88% 29.80 in 10.0 mi SW 6.9 mph - N/A   Clear
9:35 PM 70.9 °F - 67.6 °F 89% 29.81 in 10.0 mi WSW 4.6 mph - N/A   Clear
9:55 PM 70.7 °F - 67.3 °F 89% 29.81 in 10.0 mi WSW 6.9 mph - N/A   Clear
10:15 PM 70.0 °F - 67.1 °F 91% 29.81 in 10.0 mi WSW 5.8 mph - N/A   Clear
10:35 PM 69.8 °F - 67.1 °F 91% 29.81 in 10.0 mi West 6.9 mph - N/A   Clear
10:55 PM 68.9 °F - 66.6 °F 92% 29.81 in 7.0 mi West 5.8 mph - N/A   Clear
11:15 PM 69.8 °F - 66.2 °F 88% 29.81 in 10.0 mi WSW 5.8 mph - N/A   Clear
11:35 PM 69.8 °F - 66.2 °F 88% 29.82 in 10.0 mi WSW 4.6 mph - N/A   Clear
11:55 PM 69.1 °F - 66.4 °F 91% 29.82 in 10.0 mi West 5.8 mph - N/A   Clear